sensor_id;sensor_type;location;lat;lon;timestamp;temperature;humidity
47791;DHT22;33547;49.044;1.156;2023-02-28T00:00:33;0.50;94.90
47791;DHT22;33547;49.044;1.156;2023-02-28T00:02:59;0.40;95.00
47791;DHT22;33547;49.044;1.156;2023-02-28T00:05:26;0.30;95.60
47791;DHT22;33547;49.044;1.156;2023-02-28T00:07:52;0.30;95.80
47791;DHT22;33547;49.044;1.156;2023-02-28T00:10:20;0.20;96.00
47791;DHT22;33547;49.044;1.156;2023-02-28T00:12:50;0.20;96.10
47791;DHT22;33547;49.044;1.156;2023-02-28T00:15:16;0.20;96.30
47791;DHT22;33547;49.044;1.156;2023-02-28T00:17:42;0.20;96.60
47791;DHT22;33547;49.044;1.156;2023-02-28T00:20:09;0.20;96.10
47791;DHT22;33547;49.044;1.156;2023-02-28T00:22:42;0.20;96.50
47791;DHT22;33547;49.044;1.156;2023-02-28T00:25:11;0.20;96.80
47791;DHT22;33547;49.044;1.156;2023-02-28T00:27:38;0.10;97.00
47791;DHT22;33547;49.044;1.156;2023-02-28T00:30:06;0.10;97.20
47791;DHT22;33547;49.044;1.156;2023-02-28T00:32:32;0.00;97.20
47791;DHT22;33547;49.044;1.156;2023-02-28T00:34:59;0.00;97.80
47791;DHT22;33547;49.044;1.156;2023-02-28T00:37:25;0.10;97.90
47791;DHT22;33547;49.044;1.156;2023-02-28T00:39:51;0.10;97.90
47791;DHT22;33547;49.044;1.156;2023-02-28T00:42:17;0.00;97.60
47791;DHT22;33547;49.044;1.156;2023-02-28T00:44:42;0.00;97.90
47791;DHT22;33547;49.044;1.156;2023-02-28T00:47:08;0.00;98.00
47791;DHT22;33547;49.044;1.156;2023-02-28T00:49:34;-0.10;98.10
47791;DHT22;33547;49.044;1.156;2023-02-28T00:51:59;0.00;98.10
47791;DHT22;33547;49.044;1.156;2023-02-28T00:54:25;0.00;98.10
47791;DHT22;33547;49.044;1.156;2023-02-28T00:56:51;-0.10;98.50
47791;DHT22;33547;49.044;1.156;2023-02-28T00:59:17;-0.10;98.60
47791;DHT22;33547;49.044;1.156;2023-02-28T01:01:44;-0.30;99.00
47791;DHT22;33547;49.044;1.156;2023-02-28T01:04:10;-0.40;99.40
47791;DHT22;33547;49.044;1.156;2023-02-28T01:06:36;-0.40;99.90
47791;DHT22;33547;49.044;1.156;2023-02-28T01:09:04;-0.50;99.80
47791;DHT22;33547;49.044;1.156;2023-02-28T01:11:31;-0.50;99.80
47791;DHT22;33547;49.044;1.156;2023-02-28T01:13:57;-0.50;99.90
47791;DHT22;33547;49.044;1.156;2023-02-28T01:16:22;-0.50;99.90
47791;DHT22;33547;49.044;1.156;2023-02-28T01:18:48;-0.50;99.90
47791;DHT22;33547;49.044;1.156;2023-02-28T01:21:16;-0.40;99.90
47791;DHT22;33547;49.044;1.156;2023-02-28T01:23:43;-0.50;99.90
47791;DHT22;33547;49.044;1.156;2023-02-28T01:26:12;-0.50;99.90
47791;DHT22;33547;49.044;1.156;2023-02-28T01:28:38;-0.60;99.90
47791;DHT22;33547;49.044;1.156;2023-02-28T01:31:04;-0.60;99.90
47791;DHT22;33547;49.044;1.156;2023-02-28T01:33:31;-0.50;99.90
47791;DHT22;33547;49.044;1.156;2023-02-28T01:35:59;-0.50;99.90
47791;DHT22;33547;49.044;1.156;2023-02-28T01:38:25;-0.50;99.90
47791;DHT22;33547;49.044;1.156;2023-02-28T01:40:51;-0.50;99.90
47791;DHT22;33547;49.044;1.156;2023-02-28T01:43:35;-0.50;99.90
47791;DHT22;33547;49.044;1.156;2023-02-28T01:46:16;-0.50;99.90
47791;DHT22;33547;49.044;1.156;2023-02-28T01:51:48;-0.50;99.90
47791;DHT22;33547;49.044;1.156;2023-02-28T01:54:29;-0.80;99.90
47791;DHT22;33547;49.044;1.156;2023-02-28T01:56:59;-0.80;99.90
47791;DHT22;33547;49.044;1.156;2023-02-28T01:59:48;-0.70;99.90
47791;DHT22;33547;49.044;1.156;2023-02-28T02:02:19;-0.70;99.90
47791;DHT22;33547;49.044;1.156;2023-02-28T02:07:25;-0.80;99.90
47791;DHT22;33547;49.044;1.156;2023-02-28T02:10:04;-0.80;99.90
47791;DHT22;33547;49.044;1.156;2023-02-28T02:35:28;-1.10;99.90
47791;DHT22;33547;49.044;1.156;2023-02-28T02:38:08;-1.10;99.90
47791;DHT22;33547;49.044;1.156;2023-02-28T02:43:35;-1.20;99.90
47791;DHT22;33547;49.044;1.156;2023-02-28T02:46:15;-1.20;99.90
47791;DHT22;33547;49.044;1.156;2023-02-28T02:48:44;-1.20;99.90
47791;DHT22;33547;49.044;1.156;2023-02-28T02:51:14;-1.20;99.90
47791;DHT22;33547;49.044;1.156;2023-02-28T02:53:48;-1.10;99.90
47791;DHT22;33547;49.044;1.156;2023-02-28T02:56:19;-1.20;99.90
47791;DHT22;33547;49.044;1.156;2023-02-28T02:58:48;-1.30;99.90
47791;DHT22;33547;49.044;1.156;2023-02-28T03:01:19;-1.30;99.90
47791;DHT22;33547;49.044;1.156;2023-02-28T03:03:59;-1.40;99.90
47791;DHT22;33547;49.044;1.156;2023-02-28T03:06:26;-1.40;99.90
47791;DHT22;33547;49.044;1.156;2023-02-28T03:08:53;-1.50;99.90
47791;DHT22;33547;49.044;1.156;2023-02-28T03:11:19;-1.50;99.90
47791;DHT22;33547;49.044;1.156;2023-02-28T03:13:54;-1.60;99.90
47791;DHT22;33547;49.044;1.156;2023-02-28T03:16:39;-1.50;99.90
47791;DHT22;33547;49.044;1.156;2023-02-28T03:33:10;-1.70;99.90
47791;DHT22;33547;49.044;1.156;2023-02-28T03:35:42;-1.70;99.90
47791;DHT22;33547;49.044;1.156;2023-02-28T03:38:20;-1.70;99.90
47791;DHT22;33547;49.044;1.156;2023-02-28T03:40:51;-1.70;99.90
47791;DHT22;33547;49.044;1.156;2023-02-28T03:43:25;-1.80;99.90
47791;DHT22;33547;49.044;1.156;2023-02-28T03:45:54;-1.80;99.90
47791;DHT22;33547;49.044;1.156;2023-02-28T03:48:31;-1.70;99.90
47791;DHT22;33547;49.044;1.156;2023-02-28T03:51:01;-1.70;99.90
47791;DHT22;33547;49.044;1.156;2023-02-28T03:53:29;-1.70;99.90
47791;DHT22;33547;49.044;1.156;2023-02-28T04:01:35;-1.80;99.90
47791;DHT22;33547;49.044;1.156;2023-02-28T04:04:02;-1.80;99.90
47791;DHT22;33547;49.044;1.156;2023-02-28T04:06:32;-1.80;99.90
47791;DHT22;33547;49.044;1.156;2023-02-28T04:08:58;-1.70;99.90
47791;DHT22;33547;49.044;1.156;2023-02-28T04:11:38;-1.70;99.90
47791;DHT22;33547;49.044;1.156;2023-02-28T04:14:05;-1.70;99.90
47791;DHT22;33547;49.044;1.156;2023-02-28T04:16:32;-1.70;99.90
47791;DHT22;33547;49.044;1.156;2023-02-28T04:18:58;-1.70;99.90
47791;DHT22;33547;49.044;1.156;2023-02-28T04:21:28;-1.70;99.90
47791;DHT22;33547;49.044;1.156;2023-02-28T04:23:54;-1.70;99.90
47791;DHT22;33547;49.044;1.156;2023-02-28T04:26:20;-1.70;99.90
47791;DHT22;33547;49.044;1.156;2023-02-28T04:28:46;-1.70;99.90
47791;DHT22;33547;49.044;1.156;2023-02-28T04:31:11;-1.80;99.90
47791;DHT22;33547;49.044;1.156;2023-02-28T04:33:37;-1.70;99.90
47791;DHT22;33547;49.044;1.156;2023-02-28T04:36:07;-1.70;99.90
47791;DHT22;33547;49.044;1.156;2023-02-28T04:38:36;-1.70;99.90
47791;DHT22;33547;49.044;1.156;2023-02-28T04:41:02;-1.70;99.90
47791;DHT22;33547;49.044;1.156;2023-02-28T04:43:28;-1.70;99.90
47791;DHT22;33547;49.044;1.156;2023-02-28T04:45:55;-1.80;99.90
47791;DHT22;33547;49.044;1.156;2023-02-28T04:48:27;-1.80;99.90
47791;DHT22;33547;49.044;1.156;2023-02-28T04:50:53;-1.80;99.90
47791;DHT22;33547;49.044;1.156;2023-02-28T04:53:19;-1.80;99.90
47791;DHT22;33547;49.044;1.156;2023-02-28T04:55:45;-1.90;99.90
47791;DHT22;33547;49.044;1.156;2023-02-28T04:58:12;-1.90;99.90
47791;DHT22;33547;49.044;1.156;2023-02-28T05:00:37;-1.80;99.90
47791;DHT22;33547;49.044;1.156;2023-02-28T05:03:03;-1.80;99.90
47791;DHT22;33547;49.044;1.156;2023-02-28T05:05:29;-1.90;99.90
47791;DHT22;33547;49.044;1.156;2023-02-28T05:07:54;-2.00;99.90
47791;DHT22;33547;49.044;1.156;2023-02-28T05:10:24;-2.10;99.90
47791;DHT22;33547;49.044;1.156;2023-02-28T05:12:49;-2.10;99.90
47791;DHT22;33547;49.044;1.156;2023-02-28T05:15:16;-2.00;99.90
47791;DHT22;33547;49.044;1.156;2023-02-28T05:17:42;-2.00;99.90
47791;DHT22;33547;49.044;1.156;2023-02-28T05:20:09;-2.10;99.90
47791;DHT22;33547;49.044;1.156;2023-02-28T05:22:42;-2.10;99.90
47791;DHT22;33547;49.044;1.156;2023-02-28T05:25:11;-2.10;99.90
47791;DHT22;33547;49.044;1.156;2023-02-28T05:27:38;-2.20;99.90
47791;DHT22;33547;49.044;1.156;2023-02-28T05:30:05;-2.20;99.90
47791;DHT22;33547;49.044;1.156;2023-02-28T05:32:31;-2.20;99.90
47791;DHT22;33547;49.044;1.156;2023-02-28T05:34:57;-2.20;99.90
47791;DHT22;33547;49.044;1.156;2023-02-28T05:37:22;-2.20;99.90
47791;DHT22;33547;49.044;1.156;2023-02-28T05:39:48;-2.30;99.90
47791;DHT22;33547;49.044;1.156;2023-02-28T05:42:14;-2.40;99.90
47791;DHT22;33547;49.044;1.156;2023-02-28T05:44:39;-2.40;99.90
47791;DHT22;33547;49.044;1.156;2023-02-28T05:47:05;-2.40;99.90
47791;DHT22;33547;49.044;1.156;2023-02-28T05:49:31;-2.40;99.90
47791;DHT22;33547;49.044;1.156;2023-02-28T05:51:56;-2.40;99.90
47791;DHT22;33547;49.044;1.156;2023-02-28T05:54:22;-2.40;99.90
47791;DHT22;33547;49.044;1.156;2023-02-28T05:56:47;-2.50;99.90
47791;DHT22;33547;49.044;1.156;2023-02-28T05:59:13;-2.40;99.90
47791;DHT22;33547;49.044;1.156;2023-02-28T06:01:40;-2.50;99.90
47791;DHT22;33547;49.044;1.156;2023-02-28T06:04:09;-2.50;99.90
47791;DHT22;33547;49.044;1.156;2023-02-28T06:06:36;-2.50;99.90
47791;DHT22;33547;49.044;1.156;2023-02-28T06:09:04;-2.50;99.90
47791;DHT22;33547;49.044;1.156;2023-02-28T06:11:30;-2.50;99.90
47791;DHT22;33547;49.044;1.156;2023-02-28T06:13:59;-2.50;99.90
47791;DHT22;33547;49.044;1.156;2023-02-28T06:16:27;-2.50;99.90
47791;DHT22;33547;49.044;1.156;2023-02-28T06:18:53;-2.50;99.90
47791;DHT22;33547;49.044;1.156;2023-02-28T06:21:21;-2.40;99.90
47791;DHT22;33547;49.044;1.156;2023-02-28T06:23:47;-2.40;99.90
47791;DHT22;33547;49.044;1.156;2023-02-28T06:26:13;-2.40;99.90
47791;DHT22;33547;49.044;1.156;2023-02-28T06:28:39;-2.40;99.90
47791;DHT22;33547;49.044;1.156;2023-02-28T06:31:13;-2.40;99.90
47791;DHT22;33547;49.044;1.156;2023-02-28T06:33:41;-2.40;99.90
47791;DHT22;33547;49.044;1.156;2023-02-28T06:36:08;-2.30;99.90
47791;DHT22;33547;49.044;1.156;2023-02-28T06:38:34;-2.40;99.90
47791;DHT22;33547;49.044;1.156;2023-02-28T06:41:00;-2.30;99.90
47791;DHT22;33547;49.044;1.156;2023-02-28T06:43:29;-2.20;99.90
47791;DHT22;33547;49.044;1.156;2023-02-28T06:45:57;-2.20;99.90
47791;DHT22;33547;49.044;1.156;2023-02-28T06:48:24;-2.20;99.90
47791;DHT22;33547;49.044;1.156;2023-02-28T06:50:50;-2.00;99.90
47791;DHT22;33547;49.044;1.156;2023-02-28T06:53:15;-2.00;99.90
47791;DHT22;33547;49.044;1.156;2023-02-28T06:55:41;-2.00;99.90
47791;DHT22;33547;49.044;1.156;2023-02-28T06:58:07;-2.00;99.90
47791;DHT22;33547;49.044;1.156;2023-02-28T07:00:45;-2.00;99.90
47791;DHT22;33547;49.044;1.156;2023-02-28T07:03:12;-2.00;99.90
47791;DHT22;33547;49.044;1.156;2023-02-28T07:05:38;-2.00;99.90
47791;DHT22;33547;49.044;1.156;2023-02-28T07:08:05;-1.90;99.90
47791;DHT22;33547;49.044;1.156;2023-02-28T07:10:34;-2.00;99.90
47791;DHT22;33547;49.044;1.156;2023-02-28T07:13:03;-1.90;99.90
47791;DHT22;33547;49.044;1.156;2023-02-28T07:15:29;-1.80;99.90
47791;DHT22;33547;49.044;1.156;2023-02-28T07:17:55;-1.70;99.90
47791;DHT22;33547;49.044;1.156;2023-02-28T07:20:22;-1.00;99.90
47791;DHT22;33547;49.044;1.156;2023-02-28T07:22:49;-0.30;99.90
47791;DHT22;33547;49.044;1.156;2023-02-28T07:25:27;0.10;99.90
47791;DHT22;33547;49.044;1.156;2023-02-28T07:27:54;0.50;99.90
47791;DHT22;33547;49.044;1.156;2023-02-28T07:30:20;1.00;99.90
47791;DHT22;33547;49.044;1.156;2023-02-28T07:32:46;1.30;99.90
47791;DHT22;33547;49.044;1.156;2023-02-28T07:35:12;1.70;99.90
47791;DHT22;33547;49.044;1.156;2023-02-28T07:37:41;1.70;99.90
47791;DHT22;33547;49.044;1.156;2023-02-28T07:40:09;1.90;99.90
47791;DHT22;33547;49.044;1.156;2023-02-28T07:42:37;2.60;99.90
47791;DHT22;33547;49.044;1.156;2023-02-28T07:45:03;2.70;99.90
47791;DHT22;33547;49.044;1.156;2023-02-28T07:47:30;2.80;99.90
47791;DHT22;33547;49.044;1.156;2023-02-28T07:49:56;3.40;99.90
47791;DHT22;33547;49.044;1.156;2023-02-28T07:52:21;3.70;99.10
47791;DHT22;33547;49.044;1.156;2023-02-28T07:54:49;3.80;99.20
47791;DHT22;33547;49.044;1.156;2023-02-28T07:57:15;4.50;98.50
47791;DHT22;33547;49.044;1.156;2023-02-28T07:59:41;4.80;97.40
47791;DHT22;33547;49.044;1.156;2023-02-28T08:02:09;5.10;96.30
47791;DHT22;33547;49.044;1.156;2023-02-28T08:04:36;5.70;95.90
47791;DHT22;33547;49.044;1.156;2023-02-28T08:07:02;6.10;94.80
47791;DHT22;33547;49.044;1.156;2023-02-28T08:09:28;6.10;94.50
47791;DHT22;33547;49.044;1.156;2023-02-28T08:11:55;6.30;94.50
47791;DHT22;33547;49.044;1.156;2023-02-28T08:14:20;6.80;93.10
47791;DHT22;33547;49.044;1.156;2023-02-28T08:16:46;7.20;92.40
47791;DHT22;33547;49.044;1.156;2023-02-28T08:19:12;8.00;91.50
47791;DHT22;33547;49.044;1.156;2023-02-28T08:21:37;8.00;90.30
47791;DHT22;33547;49.044;1.156;2023-02-28T08:24:03;8.30;89.60
47791;DHT22;33547;49.044;1.156;2023-02-28T08:26:29;8.50;90.20
47791;DHT22;33547;49.044;1.156;2023-02-28T08:28:55;8.90;85.40
47791;DHT22;33547;49.044;1.156;2023-02-28T08:31:20;8.70;83.50
47791;DHT22;33547;49.044;1.156;2023-02-28T08:33:46;9.00;82.10
47791;DHT22;33547;49.044;1.156;2023-02-28T08:36:14;9.30;81.70
47791;DHT22;33547;49.044;1.156;2023-02-28T08:38:40;9.20;81.40
47791;DHT22;33547;49.044;1.156;2023-02-28T08:41:09;9.40;80.70
47791;DHT22;33547;49.044;1.156;2023-02-28T08:43:35;9.40;79.60
47791;DHT22;33547;49.044;1.156;2023-02-28T08:46:01;9.60;78.40
47791;DHT22;33547;49.044;1.156;2023-02-28T08:48:29;10.00;77.40
47791;DHT22;33547;49.044;1.156;2023-02-28T08:51:09;10.60;75.30
47791;DHT22;33547;49.044;1.156;2023-02-28T08:53:37;10.80;74.20
47791;DHT22;33547;49.044;1.156;2023-02-28T08:56:06;10.60;73.50
47791;DHT22;33547;49.044;1.156;2023-02-28T08:58:33;10.90;71.80
47791;DHT22;33547;49.044;1.156;2023-02-28T09:00:59;11.00;72.20
47791;DHT22;33547;49.044;1.156;2023-02-28T09:03:27;10.80;71.00
47791;DHT22;33547;49.044;1.156;2023-02-28T09:06:00;10.90;70.60
47791;DHT22;33547;49.044;1.156;2023-02-28T09:08:27;10.60;70.90
47791;DHT22;33547;49.044;1.156;2023-02-28T09:10:53;10.30;70.00
47791;DHT22;33547;49.044;1.156;2023-02-28T09:13:22;11.20;69.90
47791;DHT22;33547;49.044;1.156;2023-02-28T09:15:48;11.10;68.30
47791;DHT22;33547;49.044;1.156;2023-02-28T09:18:14;11.30;66.90
47791;DHT22;33547;49.044;1.156;2023-02-28T09:20:41;12.20;65.90
47791;DHT22;33547;49.044;1.156;2023-02-28T09:23:08;10.70;65.40
47791;DHT22;33547;49.044;1.156;2023-02-28T09:25:34;11.00;66.90
47791;DHT22;33547;49.044;1.156;2023-02-28T09:28:00;11.10;64.90
47791;DHT22;33547;49.044;1.156;2023-02-28T09:30:26;12.30;63.80
47791;DHT22;33547;49.044;1.156;2023-02-28T09:32:52;11.20;64.10
47791;DHT22;33547;49.044;1.156;2023-02-28T09:35:20;11.00;63.20
47791;DHT22;33547;49.044;1.156;2023-02-28T09:37:49;10.60;63.90
47791;DHT22;33547;49.044;1.156;2023-02-28T09:40:15;10.50;64.30
47791;DHT22;33547;49.044;1.156;2023-02-28T09:42:45;10.40;63.70
47791;DHT22;33547;49.044;1.156;2023-02-28T09:45:29;10.80;63.10
47791;DHT22;33547;49.044;1.156;2023-02-28T09:47:59;11.50;63.20
47791;DHT22;33547;49.044;1.156;2023-02-28T09:50:30;11.50;62.20
47791;DHT22;33547;49.044;1.156;2023-02-28T09:52:59;12.40;60.40
47791;DHT22;33547;49.044;1.156;2023-02-28T09:55:33;11.90;60.90
47791;DHT22;33547;49.044;1.156;2023-02-28T09:58:02;12.80;59.00
47791;DHT22;33547;49.044;1.156;2023-02-28T10:00:33;13.20;57.40
47791;DHT22;33547;49.044;1.156;2023-02-28T10:03:39;12.50;56.10
47791;DHT22;33547;49.044;1.156;2023-02-28T10:06:18;11.70;57.50
47791;DHT22;33547;49.044;1.156;2023-02-28T10:09:10;12.80;57.30
47791;DHT22;33547;49.044;1.156;2023-02-28T10:11:40;12.50;56.00
47791;DHT22;33547;49.044;1.156;2023-02-28T10:14:27;13.90;55.80
47791;DHT22;33547;49.044;1.156;2023-02-28T10:17:10;12.30;53.30
47791;DHT22;33547;49.044;1.156;2023-02-28T10:25:05;11.50;54.40
47791;DHT22;33547;49.044;1.156;2023-02-28T10:27:32;11.90;54.20
47791;DHT22;33547;49.044;1.156;2023-02-28T10:30:02;12.20;52.50
47791;DHT22;33547;49.044;1.156;2023-02-28T10:32:35;12.10;54.00
47791;DHT22;33547;49.044;1.156;2023-02-28T10:35:14;11.30;55.20
47791;DHT22;33547;49.044;1.156;2023-02-28T10:37:43;11.40;55.70
47791;DHT22;33547;49.044;1.156;2023-02-28T10:43:05;12.30;55.00
47791;DHT22;33547;49.044;1.156;2023-02-28T10:45:33;12.20;54.00
47791;DHT22;33547;49.044;1.156;2023-02-28T10:48:04;10.90;54.80
47791;DHT22;33547;49.044;1.156;2023-02-28T10:58:25;9.10;58.90
47791;DHT22;33547;49.044;1.156;2023-02-28T11:00:52;10.60;57.70
47791;DHT22;33547;49.044;1.156;2023-02-28T11:03:33;10.20;56.20
47791;DHT22;33547;49.044;1.156;2023-02-28T11:06:06;11.60;56.20
47791;DHT22;33547;49.044;1.156;2023-02-28T11:08:33;11.90;55.40
47791;DHT22;33547;49.044;1.156;2023-02-28T11:11:04;10.60;56.30
47791;DHT22;33547;49.044;1.156;2023-02-28T11:13:35;9.70;57.60
47791;DHT22;33547;49.044;1.156;2023-02-28T11:16:06;10.10;58.00
47791;DHT22;33547;49.044;1.156;2023-02-28T11:18:49;11.70;56.40
47791;DHT22;33547;49.044;1.156;2023-02-28T11:21:22;10.80;55.20
47791;DHT22;33547;49.044;1.156;2023-02-28T11:23:51;12.20;54.60
47791;DHT22;33547;49.044;1.156;2023-02-28T11:26:39;12.30;54.70
47791;DHT22;33547;49.044;1.156;2023-02-28T11:29:23;13.30;53.60
47791;DHT22;33547;49.044;1.156;2023-02-28T11:34:37;12.60;53.50
47791;DHT22;33547;49.044;1.156;2023-02-28T11:37:04;13.90;52.80
47791;DHT22;33547;49.044;1.156;2023-02-28T11:39:32;12.80;54.20
47791;DHT22;33547;49.044;1.156;2023-02-28T11:48:24;9.40;57.90
47791;DHT22;33547;49.044;1.156;2023-02-28T11:50:40;10.20;57.70
47791;DHT22;33547;49.044;1.156;2023-02-28T12:06:30;10.50;58.50
47791;DHT22;33547;49.044;1.156;2023-02-28T12:12:02;9.80;59.50
47791;DHT22;33547;49.044;1.156;2023-02-28T12:20:32;10.10;60.70
47791;DHT22;33547;49.044;1.156;2023-02-28T12:28:38;9.30;62.30
47791;DHT22;33547;49.044;1.156;2023-02-28T12:31:13;9.10;61.90
47791;DHT22;33547;49.044;1.156;2023-02-28T12:33:44;9.00;62.10
47791;DHT22;33547;49.044;1.156;2023-02-28T12:36:14;9.30;62.40
47791;DHT22;33547;49.044;1.156;2023-02-28T12:41:26;8.80;62.00
47791;DHT22;33547;49.044;1.156;2023-02-28T12:44:04;9.30;63.10
47791;DHT22;33547;49.044;1.156;2023-02-28T12:46:36;9.10;62.30
47791;DHT22;33547;49.044;1.156;2023-02-28T12:49:08;8.50;62.40
47791;DHT22;33547;49.044;1.156;2023-02-28T12:51:35;8.60;64.00
47791;DHT22;33547;49.044;1.156;2023-02-28T13:00:21;8.60;64.50
47791;DHT22;33547;49.044;1.156;2023-02-28T13:11:50;9.00;65.70
47791;DHT22;33547;49.044;1.156;2023-02-28T13:19:37;8.50;64.10
47791;DHT22;33547;49.044;1.156;2023-02-28T13:22:04;8.10;65.20
47791;DHT22;33547;49.044;1.156;2023-02-28T13:24:54;7.70;66.30
47791;DHT22;33547;49.044;1.156;2023-02-28T13:27:24;7.90;66.90
47791;DHT22;33547;49.044;1.156;2023-02-28T13:29:56;8.00;65.80
47791;DHT22;33547;49.044;1.156;2023-02-28T13:39:51;7.50;67.60
47791;DHT22;33547;49.044;1.156;2023-02-28T13:50:29;8.00;67.60
47791;DHT22;33547;49.044;1.156;2023-02-28T13:55:57;8.00;67.60
47791;DHT22;33547;49.044;1.156;2023-02-28T14:01:31;8.00;68.20
47791;DHT22;33547;49.044;1.156;2023-02-28T14:07:04;7.90;68.50
47791;DHT22;33547;49.044;1.156;2023-02-28T14:11:59;8.10;67.50
47791;DHT22;33547;49.044;1.156;2023-02-28T14:17:15;8.20;68.00
47791;DHT22;33547;49.044;1.156;2023-02-28T14:19:44;8.00;68.40
47791;DHT22;33547;49.044;1.156;2023-02-28T14:33:42;7.70;67.20
47791;DHT22;33547;49.044;1.156;2023-02-28T14:36:22;7.40;67.40
47791;DHT22;33547;49.044;1.156;2023-02-28T14:38:51;7.30;68.20
47791;DHT22;33547;49.044;1.156;2023-02-28T14:41:33;7.40;68.00
47791;DHT22;33547;49.044;1.156;2023-02-28T14:44:19;7.30;68.20
47791;DHT22;33547;49.044;1.156;2023-02-28T14:46:50;7.20;68.00
47791;DHT22;33547;49.044;1.156;2023-02-28T14:49:28;7.10;69.20
47791;DHT22;33547;49.044;1.156;2023-02-28T14:54:36;7.00;70.20
47791;DHT22;33547;49.044;1.156;2023-02-28T14:57:02;7.20;70.00
47791;DHT22;33547;49.044;1.156;2023-02-28T14:59:34;7.20;69.90
47791;DHT22;33547;49.044;1.156;2023-02-28T15:02:23;7.00;70.10
47791;DHT22;33547;49.044;1.156;2023-02-28T15:04:57;6.90;71.70
47791;DHT22;33547;49.044;1.156;2023-02-28T15:07:24;6.80;72.90
47791;DHT22;33547;49.044;1.156;2023-02-28T15:12:52;6.80;74.70
47791;DHT22;33547;49.044;1.156;2023-02-28T15:15:19;6.80;74.80
47791;DHT22;33547;49.044;1.156;2023-02-28T15:17:52;6.90;74.70
47791;DHT22;33547;49.044;1.156;2023-02-28T15:20:20;6.80;75.40
47791;DHT22;33547;49.044;1.156;2023-02-28T15:22:47;6.80;76.40
47791;DHT22;33547;49.044;1.156;2023-02-28T15:25:21;6.90;75.50
47791;DHT22;33547;49.044;1.156;2023-02-28T15:27:50;6.80;75.30
47791;DHT22;33547;49.044;1.156;2023-02-28T15:30:20;6.80;75.90
47791;DHT22;33547;49.044;1.156;2023-02-28T15:33:23;6.70;76.10
47791;DHT22;33547;49.044;1.156;2023-02-28T15:35:48;6.70;76.10
47791;DHT22;33547;49.044;1.156;2023-02-28T15:38:23;6.80;76.40
47791;DHT22;33547;49.044;1.156;2023-02-28T15:40:53;6.70;75.70
47791;DHT22;33547;49.044;1.156;2023-02-28T15:43:37;6.80;76.50
47791;DHT22;33547;49.044;1.156;2023-02-28T15:46:11;6.80;76.30
47791;DHT22;33547;49.044;1.156;2023-02-28T15:48:43;6.70;77.80
47791;DHT22;33547;49.044;1.156;2023-02-28T15:51:17;6.60;77.70
47791;DHT22;33547;49.044;1.156;2023-02-28T15:53:48;6.60;77.70
47791;DHT22;33547;49.044;1.156;2023-02-28T15:56:21;6.60;77.20
47791;DHT22;33547;49.044;1.156;2023-02-28T15:58:47;6.60;77.50
47791;DHT22;33547;49.044;1.156;2023-02-28T16:01:36;6.80;77.10
47791;DHT22;33547;49.044;1.156;2023-02-28T16:04:16;6.70;74.20
47791;DHT22;33547;49.044;1.156;2023-02-28T16:06:53;6.60;69.80
47791;DHT22;33547;49.044;1.156;2023-02-28T16:09:26;6.70;69.90
47791;DHT22;33547;49.044;1.156;2023-02-28T16:11:55;6.60;70.00
47791;DHT22;33547;49.044;1.156;2023-02-28T16:14:24;6.50;70.30
47791;DHT22;33547;49.044;1.156;2023-02-28T16:16:52;6.30;71.50
47791;DHT22;33547;49.044;1.156;2023-02-28T16:19:19;6.20;73.80
47791;DHT22;33547;49.044;1.156;2023-02-28T16:21:45;6.20;71.50
47791;DHT22;33547;49.044;1.156;2023-02-28T16:24:11;6.10;67.30
47791;DHT22;33547;49.044;1.156;2023-02-28T16:26:37;6.00;65.90
47791;DHT22;33547;49.044;1.156;2023-02-28T16:29:05;6.10;65.10
47791;DHT22;33547;49.044;1.156;2023-02-28T16:31:35;5.90;64.40
47791;DHT22;33547;49.044;1.156;2023-02-28T16:34:02;5.80;64.40
47791;DHT22;33547;49.044;1.156;2023-02-28T16:36:29;5.80;64.40
47791;DHT22;33547;49.044;1.156;2023-02-28T16:38:55;5.70;64.30
47791;DHT22;33547;49.044;1.156;2023-02-28T16:41:26;5.50;64.10
47791;DHT22;33547;49.044;1.156;2023-02-28T16:43:54;5.70;64.90
47791;DHT22;33547;49.044;1.156;2023-02-28T16:46:25;5.70;64.50
47791;DHT22;33547;49.044;1.156;2023-02-28T16:48:52;5.50;64.80
47791;DHT22;33547;49.044;1.156;2023-02-28T16:51:18;5.40;65.20
47791;DHT22;33547;49.044;1.156;2023-02-28T16:53:44;5.40;65.00
47791;DHT22;33547;49.044;1.156;2023-02-28T16:56:21;5.20;64.70
47791;DHT22;33547;49.044;1.156;2023-02-28T16:58:48;5.20;64.60
47791;DHT22;33547;49.044;1.156;2023-02-28T17:01:14;5.00;64.40
47791;DHT22;33547;49.044;1.156;2023-02-28T17:03:40;4.90;64.80
47791;DHT22;33547;49.044;1.156;2023-02-28T17:06:13;5.00;64.80
47791;DHT22;33547;49.044;1.156;2023-02-28T17:08:41;4.90;64.80
47791;DHT22;33547;49.044;1.156;2023-02-28T17:11:07;5.00;64.80
47791;DHT22;33547;49.044;1.156;2023-02-28T17:13:33;4.90;65.10
47791;DHT22;33547;49.044;1.156;2023-02-28T17:16:00;4.90;65.10
47791;DHT22;33547;49.044;1.156;2023-02-28T17:18:26;4.80;65.10
47791;DHT22;33547;49.044;1.156;2023-02-28T17:20:54;4.60;65.50
47791;DHT22;33547;49.044;1.156;2023-02-28T17:23:19;4.60;65.80
47791;DHT22;33547;49.044;1.156;2023-02-28T17:25:45;4.50;65.50
47791;DHT22;33547;49.044;1.156;2023-02-28T17:28:20;4.50;65.40
47791;DHT22;33547;49.044;1.156;2023-02-28T17:30:46;4.50;65.70
47791;DHT22;33547;49.044;1.156;2023-02-28T17:33:12;4.50;65.60
47791;DHT22;33547;49.044;1.156;2023-02-28T17:35:38;4.50;66.10
47791;DHT22;33547;49.044;1.156;2023-02-28T17:38:04;4.40;66.10
47791;DHT22;33547;49.044;1.156;2023-02-28T17:40:29;4.20;66.50
47791;DHT22;33547;49.044;1.156;2023-02-28T17:42:56;4.20;66.60
47791;DHT22;33547;49.044;1.156;2023-02-28T17:45:22;4.00;66.70
47791;DHT22;33547;49.044;1.156;2023-02-28T17:47:48;4.10;67.20
47791;DHT22;33547;49.044;1.156;2023-02-28T17:50:20;4.00;67.40
47791;DHT22;33547;49.044;1.156;2023-02-28T17:52:46;3.90;67.20
47791;DHT22;33547;49.044;1.156;2023-02-28T17:55:12;3.90;67.40
47791;DHT22;33547;49.044;1.156;2023-02-28T17:57:39;3.80;67.40
47791;DHT22;33547;49.044;1.156;2023-02-28T18:00:05;3.80;67.60
47791;DHT22;33547;49.044;1.156;2023-02-28T18:02:32;3.70;68.20
47791;DHT22;33547;49.044;1.156;2023-02-28T18:04:58;3.70;68.10
47791;DHT22;33547;49.044;1.156;2023-02-28T18:07:24;3.60;68.50
47791;DHT22;33547;49.044;1.156;2023-02-28T18:09:50;3.70;67.80
47791;DHT22;33547;49.044;1.156;2023-02-28T18:12:15;3.60;68.20
47791;DHT22;33547;49.044;1.156;2023-02-28T18:14:41;3.60;68.10
47791;DHT22;33547;49.044;1.156;2023-02-28T21:34:38;0.40;83.80
47791;DHT22;33547;49.044;1.156;2023-02-28T21:37:04;0.40;84.10
47791;DHT22;33547;49.044;1.156;2023-02-28T21:39:29;0.30;84.40
47791;DHT22;33547;49.044;1.156;2023-02-28T21:41:55;0.30;85.20
47791;DHT22;33547;49.044;1.156;2023-02-28T21:44:28;0.30;84.50
47791;DHT22;33547;49.044;1.156;2023-02-28T21:46:54;0.30;85.00
47791;DHT22;33547;49.044;1.156;2023-02-28T21:49:21;0.30;85.00
47791;DHT22;33547;49.044;1.156;2023-02-28T21:51:46;0.40;84.80
47791;DHT22;33547;49.044;1.156;2023-02-28T21:54:12;0.50;84.60
47791;DHT22;33547;49.044;1.156;2023-02-28T21:56:38;0.40;85.70
47791;DHT22;33547;49.044;1.156;2023-02-28T21:59:04;0.50;85.00
47791;DHT22;33547;49.044;1.156;2023-02-28T22:01:41;0.50;85.50